Time;durP1;ratioP1;P1;durP2;ratioP2;P2;SDS_P1;SDS_P2;PMS_P1;PMS_P2;Temp;Humidity;BMP_temperature;BMP_pressure;BME280_temperature;BME280_humidity;BME280_pressure;Samples;Min_cycle;Max_cycle;Signal;HPM_P1;HPM_P2
2022/01/03 00:00:24;;;;;;;7.50;0.82;;;7.30;99.90;;;;;;5068887;28;20525;-43
2022/01/03 00:02:51;;;;;;;9.02;1.85;;;7.50;99.90;;;;;;5068757;28;20505;-42
2022/01/03 00:05:17;;;;;;;10.60;1.48;;;7.20;99.90;;;;;;5068937;28;20040;-42
2022/01/03 00:07:44;;;;;;;18.38;1.85;;;7.40;99.90;;;;;;5069092;28;20048;-43
2022/01/03 00:10:12;;;;;;;18.45;2.95;;;7.50;99.90;;;;;;5050769;28;20051;-42
2022/01/03 00:12:39;;;;;;;13.43;2.80;;;8.80;99.90;;;;;;5068983;28;20044;-43
2022/01/03 00:15:07;;;;;;;10.93;1.95;;;7.50;99.90;;;;;;5068874;28;20049;-42
2022/01/03 00:17:32;;;;;;;17.00;2.25;;;7.70;99.90;;;;;;5072723;28;20048;-42
2022/01/03 00:19:58;;;;;;;18.20;3.40;;;7.70;99.90;;;;;;5072671;28;20637;-42
2022/01/03 00:22:24;;;;;;;15.30;3.70;;;7.30;99.90;;;;;;5072397;28;20045;-44
2022/01/03 00:25:04;;;;;;;14.10;2.65;;;7.70;99.90;;;;;;5072816;28;20032;-43
2022/01/03 00:27:40;;;;;;;20.77;3.28;;;7.80;99.90;;;;;;5072545;28;20115;-42
2022/01/03 00:30:07;;;;;;;17.20;3.67;;;9.00;99.90;;;;;;5054464;28;20119;-43
2022/01/03 00:32:38;;;;;;;17.88;3.10;;;7.90;99.90;;;;;;5072407;28;20076;-43
2022/01/03 00:35:05;;;;;;;19.00;3.53;;;8.00;99.90;;;;;;5072168;28;20059;-42
2022/01/03 00:37:31;;;;;;;17.08;3.22;;;7.90;99.90;;;;;;5069576;28;20060;-42
2022/01/03 00:39:59;;;;;;;12.20;3.05;;;7.90;99.90;;;;;;5072242;28;20048;-44
2022/01/03 00:42:25;;;;;;;21.50;3.30;;;8.00;99.90;;;;;;5072285;28;20079;-44
2022/01/03 00:44:52;;;;;;;21.20;2.50;;;8.00;99.90;;;;;;5072166;28;20091;-42
2022/01/03 00:47:18;;;;;;;20.35;2.03;;;8.00;99.90;;;;;;5072145;28;20039;-42
2022/01/03 00:49:44;;;;;;;26.45;3.10;;;7.90;99.90;;;;;;5054241;28;20407;-44
2022/01/03 00:52:11;;;;;;;21.95;2.58;;;8.00;99.90;;;;;;5071981;28;20102;-42
2022/01/03 00:54:38;;;;;;;16.38;2.08;;;8.00;99.90;;;;;;5072435;28;20028;-43
2022/01/03 00:57:11;;;;;;;19.35;1.98;;;8.00;99.90;;;;;;5072455;28;20068;-43
2022/01/03 00:59:52;;;;;;;23.75;2.35;;;8.10;99.90;;;;;;5072587;28;20044;-42
2022/01/03 01:02:19;;;;;;;25.40;3.20;;;8.00;99.90;;;;;;5072238;28;20116;-42
2022/01/03 01:04:45;;;;;;;23.60;2.67;;;8.00;99.90;;;;;;5072575;28;20458;-41
2022/01/03 01:07:12;;;;;;;27.17;2.42;;;8.10;99.90;;;;;;5072265;28;20044;-43
2022/01/03 01:09:37;;;;;;;12.52;1.40;;;8.10;99.90;;;;;;5072079;28;20470;-42
2022/01/03 01:12:06;;;;;;;19.90;2.78;;;8.80;99.90;;;;;;5072156;28;20094;-42
2022/01/03 01:14:32;;;;;;;26.35;3.08;;;8.20;99.90;;;;;;5071837;28;20045;-42
2022/01/03 01:16:58;;;;;;;27.35;2.65;;;7.90;99.90;;;;;;5072082;28;20044;-42
2022/01/03 01:19:27;;;;;;;39.15;3.78;;;8.10;99.90;;;;;;5071639;28;20097;-43
2022/01/03 01:21:53;;;;;;;20.98;1.95;;;8.10;99.90;;;;;;5071924;28;20040;-42
2022/01/03 01:24:22;;;;;;;22.98;2.38;;;8.10;99.90;;;;;;5071641;28;20053;-42
2022/01/03 01:29:36;;;;;;;31.42;3.33;;;7.90;99.90;;;;;;5071528;28;20052;-42
2022/01/03 01:32:03;;;;;;;30.63;3.95;;;7.90;99.90;;;;;;5071894;28;20537;-42
2022/01/03 01:34:34;;;;;;;34.10;3.85;;;8.10;99.90;;;;;;5053455;28;20053;-42
2022/01/03 01:37:01;;;;;;;30.45;2.10;;;8.00;99.90;;;;;;5088481;28;20060;-45
2022/01/03 01:39:29;;;;;;;27.85;2.80;;;8.00;99.90;;;;;;5088351;28;20494;-42
2022/01/03 01:42:01;;;;;;;31.90;3.33;;;7.90;99.90;;;;;;5091779;28;20040;-42
2022/01/03 01:44:35;;;;;;;24.05;2.75;;;8.40;99.90;;;;;;5091649;28;20044;-43
2022/01/03 01:47:06;;;;;;;35.17;4.53;;;8.00;99.90;;;;;;5091599;28;20047;-42
2022/01/03 01:49:38;;;;;;;21.98;2.90;;;8.00;99.90;;;;;;5091424;28;20075;-42
2022/01/03 01:52:04;;;;;;;35.90;3.33;;;8.80;99.90;;;;;;5091281;28;20522;-43
2022/01/03 01:54:36;;;;;;;30.80;4.18;;;8.10;99.90;;;;;;5091019;28;20394;-42
2022/01/03 01:57:16;;;;;;;30.45;3.63;;;8.10;99.90;;;;;;5091479;28;20054;-42
2022/01/03 02:00:00;;;;;;;31.65;2.92;;;8.10;99.90;;;;;;5091072;28;20123;-42
2022/01/03 02:02:50;;;;;;;28.85;4.75;;;8.10;99.90;;;;;;5090817;28;20535;-42
2022/01/03 02:05:39;;;;;;;27.75;3.35;;;8.10;99.90;;;;;;5049228;28;20087;-43
2022/01/03 02:08:12;;;;;;;22.17;2.42;;;8.20;99.90;;;;;;5090875;28;20097;-43
2022/01/03 02:10:43;;;;;;;36.20;3.00;;;8.10;99.90;;;;;;5090849;28;20386;-41
2022/01/03 02:13:10;;;;;;;42.60;4.78;;;8.60;99.90;;;;;;5091027;28;20147;-42
2022/01/03 02:15:37;;;;;;;20.95;2.53;;;8.50;99.90;;;;;;5090728;28;20405;-42
2022/01/03 02:18:04;;;;;;;31.10;5.03;;;8.20;99.90;;;;;;5090715;28;20367;-42
2022/01/03 02:20:32;;;;;;;29.17;3.60;;;8.20;99.90;;;;;;5090562;28;20393;-42
2022/01/03 02:22:58;;;;;;;30.73;3.20;;;8.20;99.90;;;;;;5090801;28;20036;-42
2022/01/03 02:25:26;;;;;;;29.23;2.90;;;8.80;99.90;;;;;;5090610;28;20048;-43
2022/01/03 02:27:53;;;;;;;23.13;3.10;;;8.20;99.90;;;;;;5072408;28;20052;-42
2022/01/03 02:30:22;;;;;;;37.72;3.50;;;8.80;99.90;;;;;;5072200;28;20051;-41
2022/01/03 02:32:48;;;;;;;31.40;4.78;;;8.70;99.90;;;;;;5090521;28;20458;-42
2022/01/03 02:35:14;;;;;;;27.90;3.30;;;8.20;99.90;;;;;;5090136;28;20075;-42
2022/01/03 02:37:44;;;;;;;27.80;4.25;;;8.20;99.90;;;;;;5087010;28;20058;-42
2022/01/03 02:40:11;;;;;;;21.30;2.28;;;9.00;99.90;;;;;;5090582;28;20039;-42
2022/01/03 02:42:38;;;;;;;34.58;4.72;;;8.20;99.90;;;;;;5090779;28;20048;-42
2022/01/03 02:45:14;;;;;;;35.13;3.25;;;8.10;99.90;;;;;;5090700;28;20047;-42
2022/01/03 02:47:42;;;;;;;32.83;3.25;;;8.10;99.90;;;;;;5090445;28;20047;-43
2022/01/03 02:50:09;;;;;;;26.88;4.15;;;8.10;99.90;;;;;;5090394;28;20040;-42
2022/01/03 02:52:36;;;;;;;19.77;1.80;;;8.10;99.90;;;;;;5090639;28;20470;-43
2022/01/03 02:55:03;;;;;;;28.08;3.22;;;8.10;99.90;;;;;;5090133;28;20044;-42
2022/01/03 02:57:41;;;;;;;32.58;4.00;;;8.10;99.90;;;;;;5090040;28;20079;-43
2022/01/03 03:00:12;;;;;;;29.60;3.45;;;8.10;99.90;;;;;;5090079;28;20079;-41
2022/01/03 03:02:38;;;;;;;28.13;2.58;;;8.10;99.90;;;;;;5089982;28;20120;-42
2022/01/03 03:05:06;;;;;;;29.77;3.40;;;9.00;99.90;;;;;;5089970;28;20119;-42
2022/01/03 03:07:32;;;;;;;37.63;3.63;;;8.00;99.90;;;;;;5089576;28;20048;-41
2022/01/03 03:09:59;;;;;;;33.97;3.72;;;8.00;99.90;;;;;;5089720;28;20035;-42
2022/01/03 03:12:26;;;;;;;27.10;2.97;;;8.00;99.90;;;;;;5089950;28;20075;-41
2022/01/03 03:14:52;;;;;;;13.00;1.90;;;8.00;99.90;;;;;;5089599;28;20047;-42
2022/01/03 03:17:19;;;;;;;24.25;3.10;;;8.00;99.90;;;;;;5089936;28;20453;-42
2022/01/03 03:19:59;;;;;;;28.58;3.15;;;8.90;99.90;;;;;;5089682;28;20160;-43
2022/01/03 03:22:27;;;;;;;27.25;2.67;;;8.00;99.90;;;;;;5089836;28;20508;-43
2022/01/03 03:25:14;;;;;;;32.38;4.10;;;8.00;99.90;;;;;;5089525;28;20062;-43
2022/01/03 03:27:43;;;;;;;26.35;2.95;;;8.00;99.90;;;;;;5089539;28;20474;-42
2022/01/03 03:30:33;;;;;;;25.63;2.50;;;8.10;99.90;;;;;;5089714;28;20115;-42
2022/01/03 03:33:15;;;;;;;30.70;3.67;;;7.90;99.90;;;;;;5089234;28;20055;-43
2022/01/03 03:35:42;;;;;;;30.50;3.33;;;8.00;99.90;;;;;;5089311;28;20101;-42
2022/01/03 03:38:08;;;;;;;41.97;4.30;;;8.80;99.90;;;;;;5086630;28;20059;-43
2022/01/03 03:40:34;;;;;;;31.73;3.15;;;7.80;99.90;;;;;;5089625;28;20210;-42
2022/01/03 03:43:00;;;;;;;36.88;4.78;;;7.80;99.90;;;;;;5089505;28;20039;-42
2022/01/03 03:45:26;;;;;;;32.10;3.13;;;7.90;99.90;;;;;;5089831;28;20067;-42
2022/01/03 03:47:52;;;;;;;37.10;4.75;;;8.70;99.90;;;;;;5089528;28;20078;-42
2022/01/03 03:50:21;;;;;;;34.75;4.28;;;7.60;99.90;;;;;;5091839;28;20186;-42
2022/01/03 03:52:47;;;;;;;30.60;3.92;;;7.50;99.90;;;;;;5093799;28;20443;-42
2022/01/03 03:55:13;;;;;;;34.70;4.28;;;8.20;99.90;;;;;;5093579;28;20044;-42
2022/01/03 03:57:39;;;;;;;25.95;3.38;;;7.90;99.90;;;;;;5093508;28;20040;-42
2022/01/03 04:00:08;;;;;;;34.95;4.22;;;7.60;99.90;;;;;;5093583;28;20154;-42
2022/01/03 04:02:34;;;;;;;29.42;2.55;;;7.60;99.90;;;;;;5093703;28;20047;-43
2022/01/03 04:05:00;;;;;;;32.67;4.47;;;8.00;99.90;;;;;;5093289;28;20388;-41
2022/01/03 04:07:25;;;;;;;40.53;5.13;;;7.60;99.90;;;;;;5093421;28;20040;-41
2022/01/03 04:09:51;;;;;;;31.10;4.90;;;7.70;99.90;;;;;;5093179;28;20040;-41
2022/01/03 04:12:17;;;;;;;31.17;3.20;;;8.30;99.90;;;;;;5093099;28;20048;-41
2022/01/03 04:14:42;;;;;;;26.85;3.80;;;8.40;99.90;;;;;;5093036;28;20047;-42
2022/01/03 04:17:09;;;;;;;29.02;2.95;;;7.80;99.90;;;;;;5093069;28;20047;-42
2022/01/03 04:19:35;;;;;;;34.38;5.95;;;7.70;99.90;;;;;;5092963;28;20050;-42
2022/01/03 04:22:01;;;;;;;32.05;3.35;;;7.90;99.90;;;;;;5092943;28;20032;-43
2022/01/03 04:24:26;;;;;;;30.70;3.95;;;7.80;99.90;;;;;;5093139;28;20036;-41
2022/01/03 04:26:53;;;;;;;32.78;4.20;;;7.80;99.90;;;;;;5092798;28;20474;-42
2022/01/03 04:29:18;;;;;;;28.05;3.65;;;7.90;99.90;;;;;;5093007;28;20052;-41
2022/01/03 04:31:44;;;;;;;31.75;4.88;;;7.90;99.90;;;;;;5092437;28;20114;-41
2022/01/03 04:34:10;;;;;;;37.72;4.47;;;7.90;99.90;;;;;;5092751;28;20070;-42
2022/01/03 04:36:36;;;;;;;27.70;3.85;;;7.90;99.90;;;;;;5092304;28;20130;-42
2022/01/03 04:39:02;;;;;;;34.92;5.20;;;7.70;99.90;;;;;;5089478;28;20044;-43
2022/01/03 04:41:28;;;;;;;33.03;3.83;;;9.00;99.90;;;;;;5092695;28;20044;-42
2022/01/03 04:43:53;;;;;;;31.40;3.30;;;7.90;99.90;;;;;;5092589;28;20131;-43
2022/01/03 04:46:19;;;;;;;33.78;4.28;;;8.90;99.90;;;;;;5074558;28;20089;-42
2022/01/03 04:48:45;;;;;;;32.80;3.60;;;8.00;99.90;;;;;;5092268;28;20040;-42
2022/01/03 04:51:11;;;;;;;31.67;5.30;;;8.10;99.90;;;;;;5092384;28;20047;-43
2022/01/03 04:53:39;;;;;;;30.35;3.95;;;8.00;99.90;;;;;;5092754;28;20035;-42
2022/01/03 04:56:12;;;;;;;31.50;4.00;;;8.10;99.90;;;;;;5092230;28;20168;-41
2022/01/03 04:58:39;;;;;;;21.80;2.63;;;8.10;99.90;;;;;;5092373;28;20048;-43
2022/01/03 05:01:05;;;;;;;38.53;4.43;;;9.00;99.90;;;;;;5091558;28;20032;-41
2022/01/03 05:03:32;;;;;;;39.70;4.32;;;8.90;99.90;;;;;;5092294;28;20040;-43
2022/01/03 05:05:57;;;;;;;36.65;4.13;;;8.10;99.90;;;;;;5092391;28;20379;-42
2022/01/03 05:08:23;;;;;;;34.58;4.35;;;9.10;99.90;;;;;;5092298;28;20047;-42
2022/01/03 05:10:49;;;;;;;32.75;4.07;;;9.40;99.90;;;;;;5092030;28;20051;-42
2022/01/03 05:13:15;;;;;;;33.70;4.72;;;8.10;99.90;;;;;;5092073;28;20039;-42
2022/01/03 05:15:41;;;;;;;30.55;4.15;;;8.00;99.90;;;;;;5091870;28;20079;-42
2022/01/03 05:18:06;;;;;;;27.58;4.43;;;8.00;99.90;;;;;;5091574;28;20051;-42
2022/01/03 05:20:32;;;;;;;33.40;3.45;;;8.40;99.90;;;;;;5092281;28;20051;-41
2022/01/03 05:22:58;;;;;;;45.55;5.03;;;9.00;99.90;;;;;;5091642;28;20461;-42
2022/01/03 05:25:24;;;;;;;38.65;3.80;;;8.00;99.90;;;;;;5092251;28;20478;-42
2022/01/03 05:27:49;;;;;;;36.85;4.50;;;7.70;99.90;;;;;;5091584;28;20043;-43
2022/01/03 05:30:15;;;;;;;32.67;3.70;;;8.00;99.90;;;;;;5091783;28;20048;-42
2022/01/03 05:32:41;;;;;;;34.88;5.05;;;8.10;99.90;;;;;;5091580;28;20169;-42
2022/01/03 05:35:07;;;;;;;31.77;3.78;;;8.00;99.90;;;;;;5091411;28;20036;-42
2022/01/03 05:37:32;;;;;;;27.58;2.90;;;8.00;99.90;;;;;;5088545;28;20061;-43
2022/01/03 05:39:58;;;;;;;39.53;3.83;;;8.10;99.90;;;;;;5090918;28;20054;-42
2022/01/03 05:42:24;;;;;;;32.70;3.88;;;8.10;99.90;;;;;;5091553;28;20102;-43
2022/01/03 05:44:51;;;;;;;37.38;4.90;;;8.20;99.90;;;;;;5091426;28;20036;-43
2022/01/03 05:47:17;;;;;;;38.22;7.13;;;8.00;99.90;;;;;;5091197;28;20053;-43
2022/01/03 05:49:43;;;;;;;33.97;5.50;;;8.00;99.90;;;;;;5091548;28;20032;-42
2022/01/03 05:52:08;;;;;;;34.20;3.40;;;8.00;99.90;;;;;;5091456;28;20051;-41
2022/01/03 05:54:34;;;;;;;44.78;6.70;;;8.00;99.90;;;;;;5091509;28;20039;-43
2022/01/03 05:57:00;;;;;;;34.28;4.38;;;8.00;99.90;;;;;;5091256;28;20044;-42
2022/01/03 05:59:25;;;;;;;42.97;4.57;;;9.20;99.90;;;;;;5091348;28;20058;-42
2022/01/03 06:01:53;;;;;;;30.55;4.75;;;8.50;99.90;;;;;;5091243;28;20048;-43
2022/01/03 06:04:24;;;;;;;39.13;3.90;;;8.40;99.90;;;;;;5091380;28;20040;-44
2022/01/03 06:06:58;;;;;;;35.33;4.63;;;8.60;99.90;;;;;;5073327;28;20052;-42
2022/01/03 06:09:24;;;;;;;45.20;5.10;;;8.90;99.90;;;;;;5073195;28;20075;-42
2022/01/03 06:11:52;;;;;;;34.08;5.05;;;8.20;99.90;;;;;;5091092;28;20040;-43
2022/01/03 06:14:19;;;;;;;30.08;3.53;;;8.10;99.90;;;;;;5089784;28;20445;-41
2022/01/03 06:16:46;;;;;;;36.03;4.30;;;8.30;99.90;;;;;;5072628;28;20101;-41
2022/01/03 06:19:13;;;;;;;41.83;5.50;;;8.80;99.90;;;;;;5090721;28;20040;-42
2022/01/03 06:21:41;;;;;;;27.90;3.47;;;9.00;99.90;;;;;;5090956;28;20475;-42
2022/01/03 06:24:11;;;;;;;42.58;5.32;;;8.10;99.90;;;;;;5090641;28;20044;-42
2022/01/03 06:26:37;;;;;;;37.35;5.45;;;8.10;99.90;;;;;;5090585;28;20044;-42
2022/01/03 06:29:04;;;;;;;39.58;5.53;;;8.10;99.90;;;;;;5090313;28;20117;-42
2022/01/03 06:31:31;;;;;;;31.73;3.70;;;8.50;99.90;;;;;;5090639;28;20071;-42
2022/01/03 06:33:57;;;;;;;50.30;7.15;;;8.00;99.90;;;;;;5090855;28;20044;-42
2022/01/03 06:36:23;;;;;;;38.47;5.80;;;8.00;99.90;;;;;;5090115;28;20152;-42
2022/01/03 06:38:48;;;;;;;30.92;4.15;;;8.10;99.90;;;;;;5087407;28;20509;-42
2022/01/03 06:41:14;;;;;;;38.72;5.38;;;7.90;99.90;;;;;;5090071;28;20155;-42
2022/01/03 06:43:40;;;;;;;30.08;4.07;;;9.10;99.90;;;;;;5072102;28;20048;-42
2022/01/03 06:46:06;;;;;;;40.92;4.15;;;8.20;99.90;;;;;;5090347;28;20044;-42
2022/01/03 06:48:31;;;;;;;41.28;5.03;;;8.20;99.90;;;;;;5090613;28;20119;-43
2022/01/03 06:50:57;;;;;;;42.17;4.65;;;8.20;99.90;;;;;;5090753;28;20048;-43
2022/01/03 06:53:23;;;;;;;32.22;4.80;;;8.50;99.90;;;;;;5090154;28;20543;-44
2022/01/03 06:55:49;;;;;;;37.53;5.32;;;8.50;99.90;;;;;;5090407;28;20040;-42
2022/01/03 06:58:14;;;;;;;44.22;5.30;;;8.20;99.90;;;;;;5090071;28;20035;-44
2022/01/03 07:00:40;;;;;;;39.08;4.75;;;8.20;99.90;;;;;;5090373;28;20086;-43
2022/01/03 07:03:06;;;;;;;40.90;6.30;;;8.30;99.90;;;;;;5089711;28;20051;-42
2022/01/03 07:05:32;;;;;;;32.70;6.40;;;8.90;99.90;;;;;;5090248;28;20048;-42
2022/01/03 07:07:59;;;;;;;41.60;6.20;;;8.80;99.90;;;;;;5090120;28;20043;-42
2022/01/03 07:10:25;;;;;;;35.30;3.75;;;8.30;99.90;;;;;;5089791;28;20048;-44
2022/01/03 07:12:52;;;;;;;34.22;4.13;;;8.30;99.90;;;;;;5090055;28;20040;-42
2022/01/03 07:20:49;;;;;;;33.35;4.53;;;8.20;99.90;;;;;;5089883;28;20067;-42
2022/01/03 07:23:17;;;;;;;35.65;4.82;;;8.30;99.90;;;;;;5089360;28;20466;-42
2022/01/03 07:25:47;;;;;;;35.55;4.82;;;8.30;99.90;;;;;;5089674;28;20108;-43
2022/01/03 07:28:14;;;;;;;36.53;5.43;;;8.70;99.90;;;;;;5089496;28;20055;-42
2022/01/03 07:30:40;;;;;;;33.00;4.47;;;8.60;99.90;;;;;;5089930;28;20101;-43
2022/01/03 07:33:06;;;;;;;40.60;5.07;;;8.40;99.90;;;;;;5089656;28;20040;-43
2022/01/03 07:35:32;;;;;;;30.45;3.78;;;8.40;99.90;;;;;;5089464;28;20478;-42
2022/01/03 07:37:58;;;;;;;38.45;6.00;;;8.50;99.90;;;;;;5086215;28;20535;-42
2022/01/03 07:40:25;;;;;;;31.55;4.10;;;8.50;99.90;;;;;;5089561;28;20395;-42
2022/01/03 07:42:50;;;;;;;31.70;3.47;;;8.20;99.90;;;;;;5089756;28;20040;-42
2022/01/03 07:45:16;;;;;;;33.10;4.32;;;8.30;99.90;;;;;;5089427;28;20532;-42
2022/01/03 07:47:42;;;;;;;34.40;4.90;;;8.20;99.90;;;;;;5089720;28;20046;-42
2022/01/03 07:50:09;;;;;;;34.20;4.40;;;8.20;99.90;;;;;;5089709;28;20044;-42
2022/01/03 07:52:35;;;;;;;37.03;4.95;;;8.20;99.90;;;;;;5089528;28;20044;-44
2022/01/03 07:55:02;;;;;;;28.20;3.65;;;8.20;99.90;;;;;;5090132;28;20101;-42
2022/01/03 07:57:28;;;;;;;30.92;3.55;;;9.10;99.90;;;;;;5089488;28;20081;-42
2022/01/03 07:59:55;;;;;;;25.45;3.60;;;8.20;99.90;;;;;;5089810;28;20127;-43
2022/01/03 08:02:21;;;;;;;32.78;3.63;;;8.10;99.90;;;;;;5089627;28;20226;-42
2022/01/03 08:04:47;;;;;;;46.25;4.28;;;8.50;99.90;;;;;;5089482;28;20139;-42
2022/01/03 08:07:12;;;;;;;31.40;4.32;;;8.10;99.90;;;;;;5071312;28;20456;-42
2022/01/03 08:09:38;;;;;;;40.13;4.70;;;8.10;99.90;;;;;;5068634;28;20044;-42
2022/01/03 08:12:05;;;;;;;27.85;4.10;;;8.50;99.90;;;;;;5069197;28;20090;-44
2022/01/03 08:14:31;;;;;;;36.88;4.57;;;8.20;99.90;;;;;;5068500;28;20037;-43
2022/01/03 08:16:58;;;;;;;32.00;4.80;;;8.60;99.90;;;;;;5050917;28;20044;-42
2022/01/03 08:19:24;;;;;;;32.20;3.80;;;8.20;99.90;;;;;;5068775;28;20033;-45
2022/01/03 08:21:50;;;;;;;39.60;4.40;;;8.10;99.90;;;;;;5069554;28;20085;-43
2022/01/03 08:24:17;;;;;;;33.22;5.43;;;8.40;99.90;;;;;;5068895;28;20115;-42
2022/01/03 08:26:42;;;;;;;42.03;4.75;;;8.40;99.90;;;;;;5069329;28;20048;-42
2022/01/03 08:29:09;;;;;;;35.10;5.00;;;9.30;99.90;;;;;;5069344;28;20040;-42
2022/01/03 08:31:37;;;;;;;29.00;4.10;;;8.50;99.90;;;;;;5068999;28;20566;-42
2022/01/03 08:34:04;;;;;;;35.15;4.13;;;9.10;99.90;;;;;;5068487;28;20083;-43
2022/01/03 08:36:31;;;;;;;35.72;4.50;;;8.70;99.90;;;;;;5068301;28;20052;-42
2022/01/03 08:38:57;;;;;;;39.65;4.65;;;8.60;99.90;;;;;;5084900;28;20135;-42
2022/01/03 08:41:22;;;;;;;34.90;4.90;;;8.60;99.90;;;;;;5078068;28;20165;-42
2022/01/03 08:43:48;;;;;;;30.60;3.63;;;8.70;99.90;;;;;;5072702;28;20390;-41
2022/01/03 08:46:14;;;;;;;33.95;5.40;;;9.70;99.90;;;;;;5072282;28;20037;-42
2022/01/03 08:48:40;;;;;;;31.67;3.28;;;8.80;99.90;;;;;;5071858;28;20041;-42
2022/01/03 08:51:05;;;;;;;27.23;3.53;;;9.70;99.90;;;;;;5072011;28;20174;-42
2022/01/03 08:53:32;;;;;;;40.35;5.15;;;8.80;99.90;;;;;;5072050;28;20513;-43
2022/01/03 08:55:59;;;;;;;27.17;4.78;;;8.90;99.90;;;;;;5072164;28;20076;-43
2022/01/03 08:58:25;;;;;;;27.42;4.15;;;8.90;99.90;;;;;;5071763;28;20051;-38
2022/01/03 09:00:51;;;;;;;29.10;4.22;;;8.90;99.90;;;;;;5072730;28;20063;-43
2022/01/03 09:03:18;;;;;;;30.08;3.50;;;9.30;99.90;;;;;;5072449;28;20390;-43
2022/01/03 09:05:44;;;;;;;30.05;4.75;;;8.80;99.90;;;;;;5072129;28;20059;-44
2022/01/03 09:08:11;;;;;;;23.90;3.38;;;8.90;99.90;;;;;;5072156;28;20053;-43
2022/01/03 09:10:38;;;;;;;29.65;3.38;;;8.90;99.90;;;;;;5072241;28;20082;-44
2022/01/03 09:13:04;;;;;;;30.30;3.22;;;9.50;99.90;;;;;;5072187;28;20040;-43
2022/01/03 09:15:30;;;;;;;24.38;3.28;;;8.90;99.90;;;;;;5072416;28;20048;-43
2022/01/03 09:17:55;;;;;;;27.75;3.03;;;9.70;99.90;;;;;;5072054;28;20474;-43
2022/01/03 09:20:21;;;;;;;22.98;2.92;;;9.00;99.90;;;;;;5072108;28;20040;-43
2022/01/03 09:22:50;;;;;;;31.15;3.20;;;9.00;99.90;;;;;;5071733;28;20128;-44
2022/01/03 09:30:35;;;;;;;25.00;3.13;;;10.00;99.90;;;;;;5071956;28;20162;-43
2022/01/03 09:33:01;;;;;;;30.70;4.40;;;9.10;99.90;;;;;;5071913;28;20044;-43
2022/01/03 09:35:27;;;;;;;26.50;4.30;;;9.10;99.90;;;;;;5071830;28;20047;-44
2022/01/03 09:37:53;;;;;;;28.70;4.70;;;9.60;99.90;;;;;;5074755;28;20056;-43
2022/01/03 09:40:19;;;;;;;30.45;3.75;;;9.10;99.90;;;;;;5091851;28;20055;-44
2022/01/03 09:42:50;;;;;;;31.10;4.15;;;9.10;99.90;;;;;;5092000;28;20051;-43
2022/01/03 09:45:17;;;;;;;22.90;3.08;;;9.10;99.90;;;;;;5091798;28;20071;-43
2022/01/03 09:47:45;;;;;;;27.40;4.78;;;9.10;99.90;;;;;;5091620;28;20063;-43
2022/01/03 09:50:14;;;;;;;30.55;4.13;;;9.10;99.90;;;;;;5091754;28;20496;-43
2022/01/03 09:52:42;;;;;;;30.23;3.30;;;9.10;99.90;;;;;;5091756;28;20040;-43
2022/01/03 09:55:08;;;;;;;22.10;3.47;;;9.10;99.90;;;;;;5092085;28;20028;-43
2022/01/03 09:57:34;;;;;;;27.63;4.93;;;9.10;99.90;;;;;;5091547;28;20044;-43
2022/01/03 10:00:01;;;;;;;23.95;3.35;;;9.10;99.90;;;;;;5091846;28;20040;-44
2022/01/03 10:02:27;;;;;;;28.02;3.22;;;9.10;99.90;;;;;;5091878;28;20363;-43
2022/01/03 10:04:53;;;;;;;24.83;2.75;;;10.10;99.90;;;;;;5091530;28;20058;-44
2022/01/03 10:07:21;;;;;;;35.72;3.50;;;10.20;99.90;;;;;;5091633;28;20127;-43
2022/01/03 10:09:47;;;;;;;19.90;3.58;;;9.00;99.90;;;;;;5091324;28;20040;-43
2022/01/03 10:12:14;;;;;;;31.35;4.38;;;9.00;99.90;;;;;;5091575;28;20410;-43
2022/01/03 10:14:40;;;;;;;24.27;2.90;;;9.10;99.90;;;;;;5091081;28;20040;-43
2022/01/03 10:17:07;;;;;;;20.13;3.72;;;9.20;99.90;;;;;;5091361;28;20056;-43
2022/01/03 10:19:56;;;;;;;38.92;5.63;;;9.20;99.90;;;;;;5091047;28;20077;-43
2022/01/03 10:22:27;;;;;;;27.42;4.22;;;10.70;99.90;;;;;;5091402;28;20047;-44
2022/01/03 10:24:53;;;;;;;33.22;4.00;;;9.20;99.90;;;;;;5091135;28;20118;-44
2022/01/03 10:27:21;;;;;;;31.02;3.75;;;10.20;99.90;;;;;;5091585;28;20501;-43
2022/01/03 10:29:57;;;;;;;29.38;4.70;;;10.10;99.90;;;;;;5091095;28;20044;-45
2022/01/03 10:32:28;;;;;;;34.30;4.72;;;9.70;99.90;;;;;;5091325;28;20092;-43
2022/01/03 10:35:16;;;;;;;24.52;3.42;;;9.20;99.90;;;;;;5090889;28;20494;-44
2022/01/03 10:37:44;;;;;;;33.58;4.97;;;9.20;99.90;;;;;;5066691;28;20122;-43
2022/01/03 10:40:25;;;;;;;33.22;4.00;;;9.80;99.90;;;;;;5071160;28;20052;-43
2022/01/03 10:42:52;;;;;;;24.40;3.50;;;9.20;99.90;;;;;;5071069;28;20074;-43
2022/01/03 10:45:33;;;;;;;21.70;2.70;;;9.80;99.90;;;;;;5070606;28;20528;-44
2022/01/03 10:48:00;;;;;;;29.02;4.28;;;9.20;99.90;;;;;;5070704;28;20043;-43
2022/01/03 10:50:27;;;;;;;31.00;5.05;;;9.20;99.90;;;;;;5070633;28;20047;-44
2022/01/03 10:52:53;;;;;;;33.70;3.60;;;9.20;99.90;;;;;;5070599;28;20067;-43
2022/01/03 10:55:30;;;;;;;32.08;3.10;;;9.50;99.90;;;;;;5070437;28;20048;-43
2022/01/03 10:58:00;;;;;;;27.55;4.72;;;9.30;99.90;;;;;;5070244;28;20367;-45
2022/01/03 11:00:29;;;;;;;24.08;2.97;;;9.30;99.90;;;;;;5070072;28;20040;-44
2022/01/03 11:05:53;;;;;;;21.20;2.88;;;9.50;99.90;;;;;;5070416;28;20131;-43
2022/01/03 11:11:08;;;;;;;27.75;3.42;;;9.50;99.90;;;;;;5070354;28;20051;-43
2022/01/03 11:13:44;;;;;;;16.05;2.50;;;9.50;99.90;;;;;;5068956;28;20044;-43
2022/01/03 11:16:11;;;;;;;23.55;3.53;;;9.50;99.90;;;;;;5070094;28;20116;-44
2022/01/03 11:18:47;;;;;;;21.90;2.53;;;9.50;99.90;;;;;;5070238;28;20446;-45
2022/01/03 11:21:16;;;;;;;22.38;2.75;;;9.50;99.90;;;;;;5069760;28;20036;-42
2022/01/03 11:23:49;;;;;;;28.67;3.22;;;9.50;99.90;;;;;;5070323;28;20044;-43
2022/01/03 11:26:20;;;;;;;20.48;3.35;;;9.60;99.90;;;;;;5069859;28;20075;-43
2022/01/03 11:28:47;;;;;;;21.77;3.38;;;9.90;99.90;;;;;;5070001;28;20115;-43
2022/01/03 11:31:15;;;;;;;16.17;2.40;;;9.90;99.90;;;;;;5070115;28;20045;-43
2022/01/03 11:33:42;;;;;;;20.27;2.63;;;9.70;99.90;;;;;;5070203;28;20468;-43
2022/01/03 11:36:09;;;;;;;23.25;3.00;;;10.10;99.90;;;;;;5068454;28;20729;-44
2022/01/03 11:38:38;;;;;;;24.90;2.97;;;9.70;99.90;;;;;;5079692;28;20064;-42
2022/01/03 11:41:10;;;;;;;17.60;3.05;;;10.80;99.90;;;;;;5090009;28;20052;-43
2022/01/03 11:43:38;;;;;;;20.27;2.85;;;9.70;99.90;;;;;;5090364;28;20040;-43
2022/01/03 11:46:04;;;;;;;22.23;3.33;;;9.90;99.90;;;;;;5090381;28;20393;-44
2022/01/03 11:48:31;;;;;;;28.40;2.60;;;9.80;99.90;;;;;;5090355;28;20047;-42
2022/01/03 11:51:02;;;;;;;23.23;3.20;;;9.70;99.90;;;;;;5089983;28;20478;-44
2022/01/03 11:53:30;;;;;;;17.95;2.58;;;9.70;99.90;;;;;;5090373;28;20430;-43
2022/01/03 11:55:58;;;;;;;28.00;3.97;;;9.70;99.90;;;;;;5089750;28;20482;-43
2022/01/03 12:03:59;;;;;;;15.07;2.38;;;9.30;99.90;;;;;;5090056;28;20093;-43
2022/01/03 12:06:30;;;;;;;20.90;2.88;;;9.70;99.90;;;;;;5090210;28;20438;-43
2022/01/03 12:08:59;;;;;;;21.83;3.80;;;9.60;99.90;;;;;;5089614;28;20047;-43
2022/01/03 12:11:27;;;;;;;28.77;3.25;;;10.80;99.90;;;;;;5091860;28;20044;-44
2022/01/03 12:13:55;;;;;;;19.30;1.95;;;9.70;99.90;;;;;;5093648;28;20058;-43
2022/01/03 12:17:03;;;;;;;25.42;4.40;;;9.90;99.90;;;;;;5093632;28;20040;-43
2022/01/03 12:19:45;;;;;;;20.48;2.17;;;9.80;99.90;;;;;;4991988;28;20136;-43
2022/01/03 12:22:22;;;;;;;26.27;3.40;;;9.80;99.90;;;;;;5089161;28;20059;-43
2022/01/03 12:24:56;;;;;;;27.40;3.35;;;9.80;99.90;;;;;;5093940;28;20044;-43
2022/01/03 12:27:24;;;;;;;31.23;3.63;;;9.70;99.90;;;;;;5094133;28;20047;-45
2022/01/03 12:29:56;;;;;;;29.08;3.72;;;9.70;99.90;;;;;;5093606;28;20040;-43
2022/01/03 12:32:40;;;;;;;20.33;2.38;;;9.70;99.90;;;;;;5093481;28;20047;-45
2022/01/03 12:35:19;;;;;;;20.77;2.60;;;9.60;99.90;;;;;;5093326;28;20498;-46
2022/01/03 12:37:49;;;;;;;30.33;2.95;;;9.60;99.90;;;;;;5090176;28;20584;-43
2022/01/03 12:40:25;;;;;;;20.13;2.42;;;9.70;99.90;;;;;;5092971;28;20420;-44
2022/01/03 12:42:56;;;;;;;26.42;2.40;;;9.70;99.90;;;;;;5093428;28;20043;-43
2022/01/03 12:45:32;;;;;;;21.30;2.67;;;9.70;99.90;;;;;;5093472;28;20036;-44
2022/01/03 12:48:10;;;;;;;15.52;1.73;;;9.70;99.90;;;;;;5092805;28;20098;-44
2022/01/03 12:50:38;;;;;;;28.15;2.78;;;9.80;99.90;;;;;;5092944;28;20055;-44
2022/01/03 12:53:04;;;;;;;34.20;4.28;;;9.70;99.90;;;;;;5092593;28;20044;-43
2022/01/03 12:55:53;;;;;;;31.05;3.20;;;9.80;99.90;;;;;;5093210;28;20040;-43
2022/01/03 12:58:19;;;;;;;21.55;3.78;;;10.10;99.90;;;;;;5092719;28;20072;-43
2022/01/03 13:00:50;;;;;;;24.90;3.42;;;9.70;99.90;;;;;;5092658;28;20148;-43
2022/01/03 13:03:22;;;;;;;27.63;3.28;;;9.70;99.90;;;;;;5092631;28;20035;-44
2022/01/03 13:06:18;;;;;;;21.00;3.08;;;10.20;99.90;;;;;;5092857;28;20048;-43
2022/01/03 13:08:55;;;;;;;26.48;2.88;;;9.80;99.90;;;;;;5074748;28;20100;-43
2022/01/03 13:11:35;;;;;;;15.77;3.88;;;9.80;99.90;;;;;;5092482;28;20046;-42
2022/01/03 13:14:03;;;;;;;36.67;3.78;;;9.80;99.90;;;;;;5092561;28;20365;-43
2022/01/03 13:16:35;;;;;;;23.42;2.95;;;9.90;99.90;;;;;;5092483;28;20074;-43